KJAC/JAC METAR and TAF weather

Enter ICAO airport designator
Station Type Date Time Source
KJAC METAR 2018/12/13 08:56 UTC NOAA

KJAC 130856Z 05003KT 10SM CLR M17/M19 A3029 RMK AO2 SLP343 T11721194 52014 FZRANO


Station Type Date Time Source
KJAC Decoded METAR 2018/12/13 08:56 UTC NOAA

Jackson, Jackson Hole Airport, WY, United States (KJAC) 43-36N 110-44W
Dec 13, 2018 - 03:56 AM EST / 2018.12.13 0856 UTC
Wind: from the NE (050 degrees) at 3 MPH (3 KT):0
Visibility: 10 mile(s):0
Sky conditions: clear
Temperature: 1.0 F (-17.2 C)
Dew Point: -2.9 F (-19.4 C)
Relative Humidity: 82%
Pressure (altimeter): 30.29 in. Hg (1025 hPa)
Pressure tendency: 0.04 inches (1.4 hPa) higher than three hours ago
ob: KJAC 130856Z 05003KT 10SM CLR M17/M19 A3029 RMK AO2 SLP343 T11721194 52014 FZRANO
cycle: 9

Station Type Date Time Source
KJAC TAF 2018/12/13 07:42 UTC NOAA

TAF
AMD KJAC 130639Z 1307/1406 VRB05KT P6SM FEW040
FM131200 VRB04KT P6SM VCFG FEW005
FM131700 19006KT P6SM SKC
FM140200 01006KT P6SM FEW040 SCT100
AMD LTD TO CLD VIS AND WIND


Example: see airport list